createdAt,value
2022-11-05T00:01:59.313Z,6.50
2022-11-05T00:04:44.923Z,7.67
2022-11-05T00:07:33.595Z,6.97
2022-11-05T00:10:07.972Z,6.80
2022-11-05T00:12:53.651Z,6.90
2022-11-05T00:15:39.226Z,7.00
2022-11-05T00:18:07.509Z,6.40
2022-11-05T00:20:35.862Z,5.83
2022-11-05T00:23:22.842Z,6.30
2022-11-05T00:26:00.704Z,6.03
2022-11-05T00:28:30.391Z,7.00
2022-11-05T00:31:02.935Z,6.80
2022-11-05T00:33:31.699Z,6.23
2022-11-05T00:36:00.336Z,6.60
2022-11-05T00:38:30.480Z,6.10
2022-11-05T00:41:00.239Z,6.50
2022-11-05T00:43:46.352Z,6.50
2022-11-05T00:46:14.639Z,6.70
2022-11-05T00:49:00.387Z,5.90
2022-11-05T00:51:28.667Z,6.57
2022-11-05T00:53:56.995Z,6.30
2022-11-05T00:56:26.704Z,6.90
2022-11-05T00:58:56.434Z,6.20
2022-11-05T01:01:24.888Z,5.97
2022-11-05T01:03:53.141Z,5.93
2022-11-05T01:06:22.355Z,5.60
2022-11-05T01:08:50.935Z,6.10
2022-11-05T01:14:17.639Z,5.37
2022-11-05T01:16:46.211Z,5.10
2022-11-05T01:19:14.519Z,5.00
2022-11-05T01:21:42.757Z,5.47
2022-11-05T01:24:26.051Z,5.07
2022-11-05T01:26:54.287Z,5.13
2022-11-05T01:29:23.924Z,5.37
2022-11-05T01:31:52.279Z,5.67
2022-11-05T01:34:20.515Z,5.30
2022-11-05T01:36:49.277Z,6.03
2022-11-05T01:39:17.666Z,5.13
2022-11-05T01:41:46.142Z,5.13
2022-11-05T01:44:48.093Z,5.10
2022-11-05T01:47:26.767Z,5.27
2022-11-05T01:49:55.704Z,5.80
2022-11-05T01:52:24.887Z,5.73
2022-11-05T01:54:53.676Z,6.37
2022-11-05T01:57:22.385Z,5.40
2022-11-05T01:59:55.066Z,5.73
2022-11-05T02:02:25.520Z,5.73
2022-11-05T02:04:59.180Z,5.63
2022-11-05T02:07:29.203Z,5.33
2022-11-05T02:10:03.476Z,5.77
2022-11-05T02:12:34.099Z,5.90
2022-11-05T02:15:02.433Z,6.60
2022-11-05T02:17:43.319Z,6.20
2022-11-05T02:20:34.273Z,5.73
2022-11-05T02:23:27.307Z,4.73
2022-11-05T02:26:20.587Z,5.07
2022-11-05T02:29:13.440Z,5.30
2022-11-05T02:31:48.971Z,5.23
2022-11-05T02:34:25.718Z,5.23
2022-11-05T02:37:01.529Z,5.27
2022-11-05T02:39:42.672Z,5.20
2022-11-05T02:42:17.614Z,4.80
2022-11-05T02:44:53.078Z,4.40
2022-11-05T02:47:41.041Z,4.70
2022-11-05T02:50:17.983Z,4.30
2022-11-05T02:52:55.396Z,4.33
2022-11-05T02:55:30.558Z,4.63
2022-11-05T02:57:59.723Z,4.20
2022-11-05T03:00:45.844Z,4.30
2022-11-05T03:03:28.602Z,3.90
2022-11-05T03:06:24.367Z,3.97
2022-11-05T03:09:13.648Z,4.67
2022-11-05T03:11:54.122Z,4.10
2022-11-05T03:14:25.990Z,4.40
2022-11-05T03:17:00.833Z,4.03
2022-11-05T03:19:38.684Z,4.20
2022-11-05T03:22:12.326Z,4.30
2022-11-05T03:24:46.203Z,4.07
2022-11-05T03:27:19.640Z,4.57
2022-11-05T03:29:51.870Z,4.40
2022-11-05T03:32:22.434Z,4.53
2022-11-05T03:34:57.763Z,4.20
2022-11-05T03:37:29.770Z,4.20
2022-11-05T03:40:02.044Z,4.17
2022-11-05T03:42:35.773Z,4.73
2022-11-05T03:45:10.559Z,4.63
2022-11-05T03:47:43.636Z,4.60
2022-11-05T03:50:20.386Z,4.30
2022-11-05T03:52:53.584Z,4.70
2022-11-05T03:55:27.328Z,3.80
2022-11-05T03:57:57.016Z,4.23
2022-11-05T04:00:25.408Z,4.90
2022-11-05T04:02:53.729Z,4.03
2022-11-05T04:05:23.497Z,4.20
2022-11-05T04:08:14.047Z,4.17
2022-11-05T04:11:02.152Z,4.20
2022-11-05T04:13:30.701Z,3.60
2022-11-05T04:16:16.681Z,3.70
2022-11-05T04:18:45.064Z,3.83
2022-11-05T04:21:31.998Z,3.47
2022-11-05T04:24:12.831Z,3.60
2022-11-05T04:26:43.662Z,3.50
2022-11-05T04:29:29.907Z,3.40
2022-11-05T04:31:58.822Z,3.20
2022-11-05T04:34:27.695Z,3.30
2022-11-05T04:36:57.670Z,3.90
2022-11-05T04:39:26.265Z,4.07
2022-11-05T04:41:54.823Z,4.20
2022-11-05T04:44:23.234Z,3.77
2022-11-05T04:46:51.491Z,3.93
2022-11-05T04:49:19.802Z,3.10
2022-11-05T04:51:48.205Z,4.20
2022-11-05T04:54:18.141Z,3.83
2022-11-05T04:56:46.620Z,3.80
2022-11-05T04:59:15.177Z,3.90
2022-11-05T05:01:43.756Z,3.73
2022-11-05T05:04:12.096Z,3.33
2022-11-05T05:06:40.432Z,3.67
2022-11-05T05:09:08.735Z,3.10
2022-11-05T05:11:38.573Z,3.43
2022-11-05T05:14:06.983Z,3.30
2022-11-05T05:16:35.498Z,3.20
2022-11-05T05:19:04.011Z,3.03
2022-11-05T05:21:41.068Z,3.37
2022-11-05T05:24:13.524Z,3.20
2022-11-05T05:26:45.183Z,3.30
2022-11-05T05:29:14.528Z,3.00
2022-11-05T05:31:43.173Z,3.70
2022-11-05T05:34:13.387Z,3.33
2022-11-05T05:36:42.202Z,3.43
2022-11-05T05:39:11.451Z,3.10
2022-11-05T05:42:04.242Z,3.10
2022-11-05T05:44:32.799Z,3.67
2022-11-05T05:47:02.325Z,3.17
2022-11-05T05:49:33.452Z,3.27
2022-11-05T05:52:02.048Z,3.00
2022-11-05T05:54:35.010Z,3.10
2022-11-05T05:57:07.365Z,3.03
2022-11-05T05:59:36.101Z,3.37
2022-11-05T06:02:05.912Z,3.43
2022-11-05T06:04:37.834Z,3.37
2022-11-05T06:07:06.814Z,3.83
2022-11-05T06:09:54.497Z,3.87
2022-11-05T06:12:33.995Z,3.40
2022-11-05T06:15:03.142Z,5.90
2022-11-05T06:17:32.069Z,4.93
2022-11-05T06:20:03.364Z,4.90
2022-11-05T06:22:31.928Z,4.40
2022-11-05T06:25:01.760Z,3.40
2022-11-05T06:27:32.071Z,3.50
2022-11-05T06:30:00.891Z,4.30
2022-11-05T06:32:30.759Z,3.57
2022-11-05T06:34:59.837Z,3.43
2022-11-05T06:37:29.405Z,3.50
2022-11-05T06:39:58.439Z,3.40
2022-11-05T06:42:27.259Z,3.37
2022-11-05T06:44:58.432Z,3.40
2022-11-05T22:30:42.755Z,4.20
2022-11-05T22:33:11.601Z,4.30
2022-11-05T22:35:41.120Z,3.80
2022-11-05T22:38:09.738Z,4.13
2022-11-05T22:40:39.382Z,4.20
2022-11-05T22:43:07.651Z,3.87
2022-11-05T22:45:36.415Z,3.70
2022-11-05T22:48:08.066Z,3.80
2022-11-05T22:50:36.763Z,3.90
2022-11-05T22:53:05.621Z,3.80
2022-11-05T22:55:34.537Z,3.80
2022-11-05T22:58:03.326Z,3.90
2022-11-05T23:00:36.708Z,3.70
2022-11-05T23:03:07.773Z,4.03
2022-11-05T23:05:37.068Z,3.70
2022-11-05T23:08:22.930Z,3.43
2022-11-05T23:11:23.456Z,3.53
2022-11-05T23:13:51.977Z,3.73
2022-11-05T23:16:37.497Z,4.40
2022-11-05T23:19:25.032Z,4.90
2022-11-05T23:22:10.660Z,3.73
2022-11-05T23:24:40.132Z,3.47
2022-11-05T23:27:08.603Z,3.97
2022-11-05T23:29:37.287Z,3.50
2022-11-05T23:32:23.053Z,3.60
2022-11-05T23:34:53.638Z,4.03
2022-11-05T23:37:40.511Z,3.73
2022-11-05T23:40:12.249Z,3.63
2022-11-05T23:42:58.288Z,3.47
2022-11-05T23:45:46.851Z,4.07
2022-11-05T23:48:18.756Z,3.40
2022-11-05T23:50:52.688Z,4.03
2022-11-05T23:53:21.431Z,4.00
2022-11-05T23:55:50.561Z,3.70
2022-11-05T23:58:19.582Z,3.70
